sensor_id;sensor_type;location;lat;lon;timestamp;P1;durP1;ratioP1;P2;durP2;ratioP2
50483;SDS011;36409;52.168;20.878;2023-02-11T00:00:29;50.33;;;23.07;;
50483;SDS011;36409;52.168;20.878;2023-02-11T00:03:18;51.47;;;23.87;;
50483;SDS011;36409;52.168;20.878;2023-02-11T00:05:55;54.03;;;24.83;;
50483;SDS011;36409;52.168;20.878;2023-02-11T00:08:26;46.80;;;23.27;;
50483;SDS011;36409;52.168;20.878;2023-02-11T00:10:56;48.63;;;22.17;;
50483;SDS011;36409;52.168;20.878;2023-02-11T00:13:26;50.17;;;22.40;;
50483;SDS011;36409;52.168;20.878;2023-02-11T00:15:58;47.23;;;20.03;;
50483;SDS011;36409;52.168;20.878;2023-02-11T00:18:27;49.13;;;21.67;;
50483;SDS011;36409;52.168;20.878;2023-02-11T00:20:56;50.00;;;21.67;;
50483;SDS011;36409;52.168;20.878;2023-02-11T00:23:27;41.87;;;20.97;;
50483;SDS011;36409;52.168;20.878;2023-02-11T00:25:57;45.50;;;19.77;;
50483;SDS011;36409;52.168;20.878;2023-02-11T00:28:26;51.03;;;20.97;;
50483;SDS011;36409;52.168;20.878;2023-02-11T00:30:56;40.30;;;19.47;;
50483;SDS011;36409;52.168;20.878;2023-02-11T00:33:26;47.10;;;21.87;;
50483;SDS011;36409;52.168;20.878;2023-02-11T00:35:54;47.57;;;22.10;;
50483;SDS011;36409;52.168;20.878;2023-02-11T00:38:30;48.57;;;20.27;;
50483;SDS011;36409;52.168;20.878;2023-02-11T00:40:59;45.83;;;20.60;;
50483;SDS011;36409;52.168;20.878;2023-02-11T00:43:28;42.63;;;20.43;;
50483;SDS011;36409;52.168;20.878;2023-02-11T00:45:57;43.63;;;19.57;;
50483;SDS011;36409;52.168;20.878;2023-02-11T00:48:27;37.37;;;19.67;;
50483;SDS011;36409;52.168;20.878;2023-02-11T00:50:56;48.43;;;19.57;;
50483;SDS011;36409;52.168;20.878;2023-02-11T00:53:25;41.03;;;20.30;;
50483;SDS011;36409;52.168;20.878;2023-02-11T00:55:55;45.77;;;21.07;;
50483;SDS011;36409;52.168;20.878;2023-02-11T00:58:25;46.50;;;20.10;;
50483;SDS011;36409;52.168;20.878;2023-02-11T01:00:55;40.37;;;18.20;;
50483;SDS011;36409;52.168;20.878;2023-02-11T01:03:25;33.37;;;17.33;;
50483;SDS011;36409;52.168;20.878;2023-02-11T01:05:55;35.27;;;17.27;;
50483;SDS011;36409;52.168;20.878;2023-02-11T01:08:24;38.07;;;17.80;;
50483;SDS011;36409;52.168;20.878;2023-02-11T01:10:55;40.60;;;17.40;;
50483;SDS011;36409;52.168;20.878;2023-02-11T01:13:31;43.13;;;18.13;;
50483;SDS011;36409;52.168;20.878;2023-02-11T01:16:01;39.20;;;16.87;;
50483;SDS011;36409;52.168;20.878;2023-02-11T01:18:33;36.17;;;18.40;;
50483;SDS011;36409;52.168;20.878;2023-02-11T01:21:09;36.23;;;15.83;;
50483;SDS011;36409;52.168;20.878;2023-02-11T01:23:38;31.55;;;15.30;;
50483;SDS011;36409;52.168;20.878;2023-02-11T01:26:08;36.93;;;17.77;;
50483;SDS011;36409;52.168;20.878;2023-02-11T01:28:40;33.97;;;16.53;;
50483;SDS011;36409;52.168;20.878;2023-02-11T01:31:12;40.57;;;16.83;;
50483;SDS011;36409;52.168;20.878;2023-02-11T01:33:42;35.20;;;16.53;;
50483;SDS011;36409;52.168;20.878;2023-02-11T01:36:14;39.57;;;17.37;;
50483;SDS011;36409;52.168;20.878;2023-02-11T01:38:45;34.57;;;16.47;;
50483;SDS011;36409;52.168;20.878;2023-02-11T01:41:16;32.90;;;15.83;;
50483;SDS011;36409;52.168;20.878;2023-02-11T01:43:46;36.57;;;17.37;;
50483;SDS011;36409;52.168;20.878;2023-02-11T01:46:29;38.57;;;16.43;;
50483;SDS011;36409;52.168;20.878;2023-02-11T01:49:01;36.77;;;16.70;;
50483;SDS011;36409;52.168;20.878;2023-02-11T01:51:35;34.37;;;15.80;;
50483;SDS011;36409;52.168;20.878;2023-02-11T01:54:08;38.13;;;16.90;;
50483;SDS011;36409;52.168;20.878;2023-02-11T01:56:59;33.63;;;15.80;;
50483;SDS011;36409;52.168;20.878;2023-02-11T01:59:58;35.13;;;15.67;;
50483;SDS011;36409;52.168;20.878;2023-02-11T02:02:45;38.77;;;17.50;;
50483;SDS011;36409;52.168;20.878;2023-02-11T02:05:21;36.57;;;15.60;;
50483;SDS011;36409;52.168;20.878;2023-02-11T02:07:57;38.77;;;16.57;;
50483;SDS011;36409;52.168;20.878;2023-02-11T02:10:35;38.73;;;17.37;;
50483;SDS011;36409;52.168;20.878;2023-02-11T02:13:09;35.80;;;16.13;;
50483;SDS011;36409;52.168;20.878;2023-02-11T02:15:40;31.75;;;15.75;;
50483;SDS011;36409;52.168;20.878;2023-02-11T02:18:19;33.53;;;14.63;;
50483;SDS011;36409;52.168;20.878;2023-02-11T02:27:24;33.47;;;15.17;;
50483;SDS011;36409;52.168;20.878;2023-02-11T02:33:18;32.10;;;14.20;;
50483;SDS011;36409;52.168;20.878;2023-02-11T02:36:06;31.03;;;14.27;;
50483;SDS011;36409;52.168;20.878;2023-02-11T02:38:43;32.53;;;14.10;;
50483;SDS011;36409;52.168;20.878;2023-02-11T02:41:20;32.60;;;13.87;;
50483;SDS011;36409;52.168;20.878;2023-02-11T02:43:55;30.75;;;13.60;;
50483;SDS011;36409;52.168;20.878;2023-02-11T02:46:26;34.03;;;15.57;;
50483;SDS011;36409;52.168;20.878;2023-02-11T02:48:58;32.50;;;14.47;;
50483;SDS011;36409;52.168;20.878;2023-02-11T02:51:34;26.80;;;13.23;;
50483;SDS011;36409;52.168;20.878;2023-02-11T02:54:30;31.80;;;14.33;;
50483;SDS011;36409;52.168;20.878;2023-02-11T02:57:15;32.65;;;14.35;;
50483;SDS011;36409;52.168;20.878;2023-02-11T03:00:10;37.50;;;15.57;;
50483;SDS011;36409;52.168;20.878;2023-02-11T03:02:49;41.17;;;14.87;;
50483;SDS011;36409;52.168;20.878;2023-02-11T03:05:26;31.97;;;13.67;;
50483;SDS011;36409;52.168;20.878;2023-02-11T03:08:05;33.50;;;13.60;;
50483;SDS011;36409;52.168;20.878;2023-02-11T03:10:39;40.73;;;15.50;;
50483;SDS011;36409;52.168;20.878;2023-02-11T03:13:12;34.45;;;13.85;;
50483;SDS011;36409;52.168;20.878;2023-02-11T03:15:44;29.33;;;13.40;;
50483;SDS011;36409;52.168;20.878;2023-02-11T03:18:18;28.20;;;12.65;;
50483;SDS011;36409;52.168;20.878;2023-02-11T03:20:50;30.60;;;13.93;;
50483;SDS011;36409;52.168;20.878;2023-02-11T03:23:22;29.97;;;14.33;;
50483;SDS011;36409;52.168;20.878;2023-02-11T03:25:56;28.37;;;13.53;;
50483;SDS011;36409;52.168;20.878;2023-02-11T03:28:31;28.93;;;13.47;;
50483;SDS011;36409;52.168;20.878;2023-02-11T03:31:08;31.53;;;13.63;;
50483;SDS011;36409;52.168;20.878;2023-02-11T03:33:47;28.50;;;13.57;;
50483;SDS011;36409;52.168;20.878;2023-02-11T03:36:31;29.97;;;13.77;;
50483;SDS011;36409;52.168;20.878;2023-02-11T03:39:07;38.27;;;15.03;;
50483;SDS011;36409;52.168;20.878;2023-02-11T03:41:38;32.60;;;13.73;;
50483;SDS011;36409;52.168;20.878;2023-02-11T03:44:10;33.70;;;14.40;;
50483;SDS011;36409;52.168;20.878;2023-02-11T03:46:43;34.43;;;15.00;;
50483;SDS011;36409;52.168;20.878;2023-02-11T03:49:17;35.17;;;15.70;;
50483;SDS011;36409;52.168;20.878;2023-02-11T03:51:49;34.47;;;16.17;;
50483;SDS011;36409;52.168;20.878;2023-02-11T03:54:22;31.07;;;15.10;;
50483;SDS011;36409;52.168;20.878;2023-02-11T03:56:56;32.83;;;15.40;;
50483;SDS011;36409;52.168;20.878;2023-02-11T03:59:27;35.43;;;16.47;;
50483;SDS011;36409;52.168;20.878;2023-02-11T04:01:57;33.40;;;16.43;;
50483;SDS011;36409;52.168;20.878;2023-02-11T04:04:27;28.67;;;15.43;;
50483;SDS011;36409;52.168;20.878;2023-02-11T04:06:56;35.43;;;16.70;;
50483;SDS011;36409;52.168;20.878;2023-02-11T04:09:24;34.70;;;17.90;;
50483;SDS011;36409;52.168;20.878;2023-02-11T04:11:53;35.00;;;17.30;;
50483;SDS011;36409;52.168;20.878;2023-02-11T04:14:22;40.87;;;17.87;;
50483;SDS011;36409;52.168;20.878;2023-02-11T04:16:51;35.50;;;17.07;;
50483;SDS011;36409;52.168;20.878;2023-02-11T04:19:20;38.03;;;16.87;;
50483;SDS011;36409;52.168;20.878;2023-02-11T04:21:49;41.87;;;17.30;;
50483;SDS011;36409;52.168;20.878;2023-02-11T04:24:25;38.47;;;18.40;;
50483;SDS011;36409;52.168;20.878;2023-02-11T04:26:54;43.97;;;18.53;;
50483;SDS011;36409;52.168;20.878;2023-02-11T04:29:23;33.23;;;17.60;;
50483;SDS011;36409;52.168;20.878;2023-02-11T04:31:52;39.10;;;17.75;;
50483;SDS011;36409;52.168;20.878;2023-02-11T04:34:22;40.77;;;18.90;;
50483;SDS011;36409;52.168;20.878;2023-02-11T04:36:51;36.83;;;18.20;;
50483;SDS011;36409;52.168;20.878;2023-02-11T04:39:20;32.57;;;18.23;;
50483;SDS011;36409;52.168;20.878;2023-02-11T04:41:49;32.40;;;18.07;;
50483;SDS011;36409;52.168;20.878;2023-02-11T04:44:18;33.90;;;18.23;;
50483;SDS011;36409;52.168;20.878;2023-02-11T04:46:50;38.97;;;19.33;;
50483;SDS011;36409;52.168;20.878;2023-02-11T04:49:19;34.65;;;18.80;;
50483;SDS011;36409;52.168;20.878;2023-02-11T04:51:48;38.40;;;19.43;;
50483;SDS011;36409;52.168;20.878;2023-02-11T04:54:19;38.33;;;19.50;;
50483;SDS011;36409;52.168;20.878;2023-02-11T04:56:48;41.53;;;20.53;;
50483;SDS011;36409;52.168;20.878;2023-02-11T04:59:18;37.50;;;20.33;;
50483;SDS011;36409;52.168;20.878;2023-02-11T05:01:47;35.83;;;18.23;;
50483;SDS011;36409;52.168;20.878;2023-02-11T05:04:17;39.25;;;19.85;;
50483;SDS011;36409;52.168;20.878;2023-02-11T05:06:46;41.47;;;21.03;;
50483;SDS011;36409;52.168;20.878;2023-02-11T05:09:15;37.87;;;19.80;;
50483;SDS011;36409;52.168;20.878;2023-02-11T05:11:44;38.63;;;19.63;;
50483;SDS011;36409;52.168;20.878;2023-02-11T05:14:13;41.63;;;20.47;;
50483;SDS011;36409;52.168;20.878;2023-02-11T05:16:42;36.00;;;19.03;;
50483;SDS011;36409;52.168;20.878;2023-02-11T05:19:11;34.53;;;18.50;;
50483;SDS011;36409;52.168;20.878;2023-02-11T05:21:41;35.53;;;19.83;;
50483;SDS011;36409;52.168;20.878;2023-02-11T05:24:27;38.97;;;20.10;;
50483;SDS011;36409;52.168;20.878;2023-02-11T05:26:56;39.00;;;19.27;;
50483;SDS011;36409;52.168;20.878;2023-02-11T05:29:26;38.83;;;20.47;;
50483;SDS011;36409;52.168;20.878;2023-02-11T05:31:56;38.80;;;19.40;;
50483;SDS011;36409;52.168;20.878;2023-02-11T05:34:26;38.33;;;19.67;;
50483;SDS011;36409;52.168;20.878;2023-02-11T05:36:56;34.10;;;19.63;;
50483;SDS011;36409;52.168;20.878;2023-02-11T05:39:25;37.03;;;20.03;;
50483;SDS011;36409;52.168;20.878;2023-02-11T05:41:57;42.43;;;20.07;;
50483;SDS011;36409;52.168;20.878;2023-02-11T05:44:27;41.40;;;20.23;;
50483;SDS011;36409;52.168;20.878;2023-02-11T05:46:56;44.93;;;20.57;;
50483;SDS011;36409;52.168;20.878;2023-02-11T05:49:27;38.23;;;20.27;;
50483;SDS011;36409;52.168;20.878;2023-02-11T05:51:57;41.17;;;20.67;;
50483;SDS011;36409;52.168;20.878;2023-02-11T05:54:27;36.63;;;19.80;;
50483;SDS011;36409;52.168;20.878;2023-02-11T05:56:56;45.90;;;19.23;;
50483;SDS011;36409;52.168;20.878;2023-02-11T05:59:25;39.70;;;20.77;;
50483;SDS011;36409;52.168;20.878;2023-02-11T06:01:55;32.60;;;17.73;;
50483;SDS011;36409;52.168;20.878;2023-02-11T06:04:24;36.27;;;19.97;;
50483;SDS011;36409;52.168;20.878;2023-02-11T06:06:54;41.03;;;19.93;;
50483;SDS011;36409;52.168;20.878;2023-02-11T06:09:24;45.57;;;22.60;;
50483;SDS011;36409;52.168;20.878;2023-02-11T06:11:53;37.50;;;19.80;;
50483;SDS011;36409;52.168;20.878;2023-02-11T06:14:22;37.57;;;21.30;;
50483;SDS011;36409;52.168;20.878;2023-02-11T06:16:51;42.87;;;21.40;;
50483;SDS011;36409;52.168;20.878;2023-02-11T06:19:21;43.83;;;22.03;;
50483;SDS011;36409;52.168;20.878;2023-02-11T06:21:50;40.60;;;21.47;;
50483;SDS011;36409;52.168;20.878;2023-02-11T06:24:19;44.47;;;21.17;;
50483;SDS011;36409;52.168;20.878;2023-02-11T06:27:12;44.57;;;22.63;;
50483;SDS011;36409;52.168;20.878;2023-02-11T06:29:44;42.23;;;22.43;;
50483;SDS011;36409;52.168;20.878;2023-02-11T06:32:19;40.57;;;23.13;;
50483;SDS011;36409;52.168;20.878;2023-02-11T06:35:08;43.07;;;23.30;;
50483;SDS011;36409;52.168;20.878;2023-02-11T06:37:39;41.03;;;22.27;;
50483;SDS011;36409;52.168;20.878;2023-02-11T06:40:10;40.47;;;22.60;;
50483;SDS011;36409;52.168;20.878;2023-02-11T06:42:40;46.87;;;22.73;;
50483;SDS011;36409;52.168;20.878;2023-02-11T06:45:09;44.07;;;21.67;;
50483;SDS011;36409;52.168;20.878;2023-02-11T06:47:40;37.23;;;21.77;;
50483;SDS011;36409;52.168;20.878;2023-02-11T06:50:11;45.93;;;22.57;;
50483;SDS011;36409;52.168;20.878;2023-02-11T06:52:42;42.37;;;23.70;;
50483;SDS011;36409;52.168;20.878;2023-02-11T06:55:11;43.17;;;22.97;;
50483;SDS011;36409;52.168;20.878;2023-02-11T06:57:40;39.77;;;21.23;;
50483;SDS011;36409;52.168;20.878;2023-02-11T07:00:10;45.37;;;22.87;;
50483;SDS011;36409;52.168;20.878;2023-02-11T07:02:42;43.40;;;22.07;;
50483;SDS011;36409;52.168;20.878;2023-02-11T07:05:17;47.03;;;24.03;;
50483;SDS011;36409;52.168;20.878;2023-02-11T07:07:46;40.33;;;23.10;;
50483;SDS011;36409;52.168;20.878;2023-02-11T07:10:16;44.40;;;24.47;;
50483;SDS011;36409;52.168;20.878;2023-02-11T07:12:45;46.57;;;25.77;;
50483;SDS011;36409;52.168;20.878;2023-02-11T07:15:14;44.00;;;23.97;;
50483;SDS011;36409;52.168;20.878;2023-02-11T07:17:44;49.73;;;25.83;;
50483;SDS011;36409;52.168;20.878;2023-02-11T07:20:15;49.80;;;24.27;;
50483;SDS011;36409;52.168;20.878;2023-02-11T07:22:44;47.80;;;25.23;;
50483;SDS011;36409;52.168;20.878;2023-02-11T07:25:13;46.00;;;24.10;;
50483;SDS011;36409;52.168;20.878;2023-02-11T07:27:45;47.47;;;25.13;;
50483;SDS011;36409;52.168;20.878;2023-02-11T07:30:14;57.30;;;25.37;;
50483;SDS011;36409;52.168;20.878;2023-02-11T07:32:43;54.27;;;27.00;;
50483;SDS011;36409;52.168;20.878;2023-02-11T07:35:12;49.60;;;26.20;;
50483;SDS011;36409;52.168;20.878;2023-02-11T07:37:41;53.80;;;27.77;;
50483;SDS011;36409;52.168;20.878;2023-02-11T07:40:14;54.57;;;27.30;;
50483;SDS011;36409;52.168;20.878;2023-02-11T07:42:43;52.07;;;27.70;;
50483;SDS011;36409;52.168;20.878;2023-02-11T07:45:12;54.77;;;27.57;;
50483;SDS011;36409;52.168;20.878;2023-02-11T07:47:41;85.17;;;34.70;;
50483;SDS011;36409;52.168;20.878;2023-02-11T07:50:12;66.37;;;29.80;;
50483;SDS011;36409;52.168;20.878;2023-02-11T07:52:41;82.60;;;36.07;;
50483;SDS011;36409;52.168;20.878;2023-02-11T07:55:09;57.03;;;29.07;;
50483;SDS011;36409;52.168;20.878;2023-02-11T07:57:38;75.63;;;33.37;;
50483;SDS011;36409;52.168;20.878;2023-02-11T08:00:09;70.97;;;31.67;;
50483;SDS011;36409;52.168;20.878;2023-02-11T08:02:40;57.83;;;30.13;;
50483;SDS011;36409;52.168;20.878;2023-02-11T08:05:09;59.70;;;31.03;;
50483;SDS011;36409;52.168;20.878;2023-02-11T08:07:38;56.63;;;29.67;;
50483;SDS011;36409;52.168;20.878;2023-02-11T08:10:08;61.53;;;30.93;;
50483;SDS011;36409;52.168;20.878;2023-02-11T08:12:40;67.07;;;34.20;;
50483;SDS011;36409;52.168;20.878;2023-02-11T08:15:09;58.33;;;30.87;;
50483;SDS011;36409;52.168;20.878;2023-02-11T08:17:38;59.30;;;32.33;;
50483;SDS011;36409;52.168;20.878;2023-02-11T08:20:09;62.77;;;31.47;;
50483;SDS011;36409;52.168;20.878;2023-02-11T08:22:43;62.93;;;33.27;;
50483;SDS011;36409;52.168;20.878;2023-02-11T08:25:12;63.17;;;33.10;;
50483;SDS011;36409;52.168;20.878;2023-02-11T08:27:41;65.73;;;33.30;;
50483;SDS011;36409;52.168;20.878;2023-02-11T08:30:11;64.37;;;34.60;;
50483;SDS011;36409;52.168;20.878;2023-02-11T08:32:41;67.40;;;35.07;;
50483;SDS011;36409;52.168;20.878;2023-02-11T08:35:12;69.20;;;36.07;;
50483;SDS011;36409;52.168;20.878;2023-02-11T08:37:41;61.67;;;35.10;;
50483;SDS011;36409;52.168;20.878;2023-02-11T08:40:10;64.60;;;34.70;;
50483;SDS011;36409;52.168;20.878;2023-02-11T08:42:39;67.07;;;35.03;;
50483;SDS011;36409;52.168;20.878;2023-02-11T08:45:09;67.57;;;35.87;;
50483;SDS011;36409;52.168;20.878;2023-02-11T08:47:39;61.77;;;35.63;;
50483;SDS011;36409;52.168;20.878;2023-02-11T08:50:08;65.73;;;36.90;;
50483;SDS011;36409;52.168;20.878;2023-02-11T08:52:38;65.23;;;35.53;;
50483;SDS011;36409;52.168;20.878;2023-02-11T08:55:07;62.27;;;32.77;;
50483;SDS011;36409;52.168;20.878;2023-02-11T08:57:38;64.17;;;33.97;;
50483;SDS011;36409;52.168;20.878;2023-02-11T09:00:08;66.17;;;35.23;;
50483;SDS011;36409;52.168;20.878;2023-02-11T09:02:38;60.57;;;35.73;;
50483;SDS011;36409;52.168;20.878;2023-02-11T09:05:08;58.93;;;33.80;;
50483;SDS011;36409;52.168;20.878;2023-02-11T09:07:39;61.70;;;34.60;;
50483;SDS011;36409;52.168;20.878;2023-02-11T09:10:08;56.63;;;33.60;;
50483;SDS011;36409;52.168;20.878;2023-02-11T09:12:39;54.60;;;31.70;;
50483;SDS011;36409;52.168;20.878;2023-02-11T09:15:08;59.17;;;33.73;;
50483;SDS011;36409;52.168;20.878;2023-02-11T09:17:38;61.17;;;32.00;;
50483;SDS011;36409;52.168;20.878;2023-02-11T09:20:07;59.43;;;31.10;;
50483;SDS011;36409;52.168;20.878;2023-02-11T09:22:38;56.93;;;31.00;;
50483;SDS011;36409;52.168;20.878;2023-02-11T09:25:07;53.13;;;30.03;;
50483;SDS011;36409;52.168;20.878;2023-02-11T09:27:38;56.73;;;31.60;;
50483;SDS011;36409;52.168;20.878;2023-02-11T09:30:08;56.43;;;30.93;;
50483;SDS011;36409;52.168;20.878;2023-02-11T09:32:38;60.30;;;31.60;;
50483;SDS011;36409;52.168;20.878;2023-02-11T09:35:10;53.37;;;29.73;;
50483;SDS011;36409;52.168;20.878;2023-02-11T09:37:39;56.83;;;29.63;;
50483;SDS011;36409;52.168;20.878;2023-02-11T09:40:09;52.97;;;30.20;;
50483;SDS011;36409;52.168;20.878;2023-02-11T09:42:45;52.27;;;30.63;;
50483;SDS011;36409;52.168;20.878;2023-02-11T09:45:18;54.47;;;31.67;;
50483;SDS011;36409;52.168;20.878;2023-02-11T09:47:51;55.27;;;31.27;;
50483;SDS011;36409;52.168;20.878;2023-02-11T09:50:24;51.60;;;31.45;;
50483;SDS011;36409;52.168;20.878;2023-02-11T09:52:58;48.15;;;28.95;;
50483;SDS011;36409;52.168;20.878;2023-02-11T09:55:30;57.30;;;32.13;;
50483;SDS011;36409;52.168;20.878;2023-02-11T09:58:06;54.23;;;30.97;;
50483;SDS011;36409;52.168;20.878;2023-02-11T10:00:40;52.70;;;30.60;;
50483;SDS011;36409;52.168;20.878;2023-02-11T10:03:30;52.93;;;30.83;;
50483;SDS011;36409;52.168;20.878;2023-02-11T10:06:31;52.77;;;30.57;;
50483;SDS011;36409;52.168;20.878;2023-02-11T10:09:12;54.00;;;33.43;;
50483;SDS011;36409;52.168;20.878;2023-02-11T10:12:02;53.87;;;33.33;;
50483;SDS011;36409;52.168;20.878;2023-02-11T10:14:51;53.00;;;30.53;;
50483;SDS011;36409;52.168;20.878;2023-02-11T10:17:36;62.97;;;33.30;;
50483;SDS011;36409;52.168;20.878;2023-02-11T10:20:19;52.47;;;31.17;;
50483;SDS011;36409;52.168;20.878;2023-02-11T10:22:56;59.25;;;34.30;;
50483;SDS011;36409;52.168;20.878;2023-02-11T10:25:29;56.50;;;31.43;;
50483;SDS011;36409;52.168;20.878;2023-02-11T10:28:10;55.67;;;32.03;;
50483;SDS011;36409;52.168;20.878;2023-02-11T10:30:42;52.97;;;31.23;;
50483;SDS011;36409;52.168;20.878;2023-02-11T10:33:25;56.30;;;29.83;;
50483;SDS011;36409;52.168;20.878;2023-02-11T10:35:58;57.10;;;33.30;;
50483;SDS011;36409;52.168;20.878;2023-02-11T10:38:27;56.23;;;32.47;;
50483;SDS011;36409;52.168;20.878;2023-02-11T10:40:57;52.23;;;31.20;;
50483;SDS011;36409;52.168;20.878;2023-02-11T10:43:26;57.90;;;32.17;;
50483;SDS011;36409;52.168;20.878;2023-02-11T10:45:57;58.97;;;34.03;;
50483;SDS011;36409;52.168;20.878;2023-02-11T10:48:39;61.03;;;33.97;;
50483;SDS011;36409;52.168;20.878;2023-02-11T10:51:16;61.30;;;34.43;;
50483;SDS011;36409;52.168;20.878;2023-02-11T10:53:50;62.07;;;33.40;;
50483;SDS011;36409;52.168;20.878;2023-02-11T10:56:41;57.33;;;33.10;;
50483;SDS011;36409;52.168;20.878;2023-02-11T10:59:14;53.83;;;29.30;;
50483;SDS011;36409;52.168;20.878;2023-02-11T11:01:49;66.43;;;34.93;;
50483;SDS011;36409;52.168;20.878;2023-02-11T11:04:31;59.53;;;33.17;;
50483;SDS011;36409;52.168;20.878;2023-02-11T11:09:55;53.00;;;30.50;;
50483;SDS011;36409;52.168;20.878;2023-02-11T11:12:32;67.40;;;34.58;;
50483;SDS011;36409;52.168;20.878;2023-02-11T11:15:14;64.93;;;33.63;;
50483;SDS011;36409;52.168;20.878;2023-02-11T11:17:48;58.73;;;31.47;;
50483;SDS011;36409;52.168;20.878;2023-02-11T11:20:20;58.13;;;32.13;;
50483;SDS011;36409;52.168;20.878;2023-02-11T11:23:06;67.63;;;35.17;;
50483;SDS011;36409;52.168;20.878;2023-02-11T11:25:39;67.70;;;35.10;;
50483;SDS011;36409;52.168;20.878;2023-02-11T11:28:17;72.77;;;37.13;;
50483;SDS011;36409;52.168;20.878;2023-02-11T11:30:49;66.10;;;35.07;;
50483;SDS011;36409;52.168;20.878;2023-02-11T11:33:21;73.67;;;38.60;;
50483;SDS011;36409;52.168;20.878;2023-02-11T11:35:59;69.60;;;36.57;;
50483;SDS011;36409;52.168;20.878;2023-02-11T11:38:34;75.00;;;37.67;;
50483;SDS011;36409;52.168;20.878;2023-02-11T11:41:19;68.27;;;35.97;;
50483;SDS011;36409;52.168;20.878;2023-02-11T11:43:53;74.03;;;36.90;;
50483;SDS011;36409;52.168;20.878;2023-02-11T11:46:26;70.60;;;35.13;;
50483;SDS011;36409;52.168;20.878;2023-02-11T11:49:01;67.35;;;36.68;;
50483;SDS011;36409;52.168;20.878;2023-02-11T11:51:40;74.73;;;37.83;;
50483;SDS011;36409;52.168;20.878;2023-02-11T11:54:13;73.47;;;38.63;;
50483;SDS011;36409;52.168;20.878;2023-02-11T11:56:50;87.10;;;40.27;;
50483;SDS011;36409;52.168;20.878;2023-02-11T11:59:23;77.33;;;39.27;;
50483;SDS011;36409;52.168;20.878;2023-02-11T12:01:57;73.43;;;39.60;;
50483;SDS011;36409;52.168;20.878;2023-02-11T12:07:31;74.17;;;40.13;;
50483;SDS011;36409;52.168;20.878;2023-02-11T12:10:20;85.03;;;41.47;;
50483;SDS011;36409;52.168;20.878;2023-02-11T12:13:02;73.97;;;37.27;;
50483;SDS011;36409;52.168;20.878;2023-02-11T12:15:49;78.33;;;41.10;;
50483;SDS011;36409;52.168;20.878;2023-02-11T12:18:36;79.40;;;39.80;;
50483;SDS011;36409;52.168;20.878;2023-02-11T12:21:18;77.03;;;39.33;;
50483;SDS011;36409;52.168;20.878;2023-02-11T12:24:11;75.97;;;36.53;;
50483;SDS011;36409;52.168;20.878;2023-02-11T12:26:52;77.50;;;40.40;;
50483;SDS011;36409;52.168;20.878;2023-02-11T12:29:30;73.87;;;38.67;;
50483;SDS011;36409;52.168;20.878;2023-02-11T12:32:13;80.47;;;40.83;;
50483;SDS011;36409;52.168;20.878;2023-02-11T12:34:56;77.73;;;40.07;;
50483;SDS011;36409;52.168;20.878;2023-02-11T12:37:39;73.57;;;39.60;;
50483;SDS011;36409;52.168;20.878;2023-02-11T12:40:17;72.90;;;37.40;;
50483;SDS011;36409;52.168;20.878;2023-02-11T12:42:58;68.50;;;36.23;;
50483;SDS011;36409;52.168;20.878;2023-02-11T12:45:47;71.50;;;37.37;;
50483;SDS011;36409;52.168;20.878;2023-02-11T12:48:42;73.67;;;39.57;;
50483;SDS011;36409;52.168;20.878;2023-02-11T12:51:34;70.20;;;38.93;;
50483;SDS011;36409;52.168;20.878;2023-02-11T12:54:21;84.25;;;40.90;;
50483;SDS011;36409;52.168;20.878;2023-02-11T12:56:58;72.57;;;38.50;;
50483;SDS011;36409;52.168;20.878;2023-02-11T12:59:41;77.25;;;40.10;;
50483;SDS011;36409;52.168;20.878;2023-02-11T13:02:20;71.33;;;37.53;;
50483;SDS011;36409;52.168;20.878;2023-02-11T13:04:59;70.87;;;38.10;;
50483;SDS011;36409;52.168;20.878;2023-02-11T13:07:33;74.40;;;41.17;;
50483;SDS011;36409;52.168;20.878;2023-02-11T13:10:15;68.33;;;36.00;;
50483;SDS011;36409;52.168;20.878;2023-02-11T13:12:59;68.40;;;37.57;;
50483;SDS011;36409;52.168;20.878;2023-02-11T13:15:49;65.13;;;34.17;;
50483;SDS011;36409;52.168;20.878;2023-02-11T13:18:41;69.90;;;35.65;;
50483;SDS011;36409;52.168;20.878;2023-02-11T13:24:23;76.57;;;38.47;;
50483;SDS011;36409;52.168;20.878;2023-02-11T13:27:03;75.23;;;39.10;;
50483;SDS011;36409;52.168;20.878;2023-02-11T13:29:41;64.57;;;36.17;;
50483;SDS011;36409;52.168;20.878;2023-02-11T13:35:33;73.63;;;41.10;;
50483;SDS011;36409;52.168;20.878;2023-02-11T13:40:51;75.60;;;39.97;;
50483;SDS011;36409;52.168;20.878;2023-02-11T13:43:28;79.70;;;40.73;;
50483;SDS011;36409;52.168;20.878;2023-02-11T13:46:00;80.00;;;41.40;;
50483;SDS011;36409;52.168;20.878;2023-02-11T13:48:32;73.83;;;41.03;;
50483;SDS011;36409;52.168;20.878;2023-02-11T13:51:06;79.97;;;42.00;;
50483;SDS011;36409;52.168;20.878;2023-02-11T13:53:44;76.07;;;39.93;;
50483;SDS011;36409;52.168;20.878;2023-02-11T13:56:23;78.07;;;41.50;;
50483;SDS011;36409;52.168;20.878;2023-02-11T13:59:01;79.13;;;40.87;;
50483;SDS011;36409;52.168;20.878;2023-02-11T14:01:40;84.20;;;42.77;;
50483;SDS011;36409;52.168;20.878;2023-02-11T14:08:18;68.80;;;38.40;;
50483;SDS011;36409;52.168;20.878;2023-02-11T14:14:20;69.90;;;34.43;;
50483;SDS011;36409;52.168;20.878;2023-02-11T14:20:01;71.30;;;38.37;;
50483;SDS011;36409;52.168;20.878;2023-02-11T14:22:41;73.93;;;39.17;;
50483;SDS011;36409;52.168;20.878;2023-02-11T14:25:19;74.63;;;39.80;;
50483;SDS011;36409;52.168;20.878;2023-02-11T14:27:57;82.40;;;43.00;;
50483;SDS011;36409;52.168;20.878;2023-02-11T14:30:48;73.10;;;40.27;;
50483;SDS011;36409;52.168;20.878;2023-02-11T14:39:47;74.77;;;38.65;;
50483;SDS011;36409;52.168;20.878;2023-02-11T14:42:44;77.17;;;40.57;;
50483;SDS011;36409;52.168;20.878;2023-02-11T14:45:24;75.30;;;40.40;;
50483;SDS011;36409;52.168;20.878;2023-02-11T14:48:01;79.80;;;41.17;;
50483;SDS011;36409;52.168;20.878;2023-02-11T14:50:37;78.50;;;40.27;;
50483;SDS011;36409;52.168;20.878;2023-02-11T14:53:26;75.77;;;38.37;;
50483;SDS011;36409;52.168;20.878;2023-02-11T14:55:59;67.08;;;37.60;;
50483;SDS011;36409;52.168;20.878;2023-02-11T14:58:35;72.97;;;37.80;;
50483;SDS011;36409;52.168;20.878;2023-02-11T15:01:24;79.47;;;42.10;;
50483;SDS011;36409;52.168;20.878;2023-02-11T15:04:04;71.00;;;37.17;;
50483;SDS011;36409;52.168;20.878;2023-02-11T15:06:57;73.43;;;38.40;;
50483;SDS011;36409;52.168;20.878;2023-02-11T15:09:46;77.17;;;40.27;;
50483;SDS011;36409;52.168;20.878;2023-02-11T15:12:24;77.33;;;40.27;;
50483;SDS011;36409;52.168;20.878;2023-02-11T15:15:14;75.20;;;38.90;;
50483;SDS011;36409;52.168;20.878;2023-02-11T15:17:46;69.20;;;38.33;;
50483;SDS011;36409;52.168;20.878;2023-02-11T15:20:31;73.67;;;39.60;;
50483;SDS011;36409;52.168;20.878;2023-02-11T15:23:11;79.43;;;41.87;;
50483;SDS011;36409;52.168;20.878;2023-02-11T15:25:49;77.30;;;41.10;;
50483;SDS011;36409;52.168;20.878;2023-02-11T15:28:23;86.23;;;43.27;;
50483;SDS011;36409;52.168;20.878;2023-02-11T15:31:02;73.97;;;40.70;;